sensor_id;sensor_type;location;lat;lon;timestamp;pressure;altitude;pressure_sealevel;temperature;humidity
70314;BME280;57725;47.526;18.986;2023-02-16T00:01:40;101189.50;;;3.16;95.46
70314;BME280;57725;47.526;18.986;2023-02-16T00:04:22;101188.63;;;3.16;95.98
70314;BME280;57725;47.526;18.986;2023-02-16T00:06:49;101192.94;;;3.15;95.72
70314;BME280;57725;47.526;18.986;2023-02-16T00:09:18;101184.31;;;3.15;95.68
70314;BME280;57725;47.526;18.986;2023-02-16T00:11:46;101185.19;;;3.15;95.70
70314;BME280;57725;47.526;18.986;2023-02-16T00:14:32;101180.00;;;3.11;95.68
70314;BME280;57725;47.526;18.986;2023-02-16T00:16:59;101182.59;;;3.14;95.79
70314;BME280;57725;47.526;18.986;2023-02-16T00:21:56;101182.56;;;3.12;95.68
70314;BME280;57725;47.526;18.986;2023-02-16T00:24:22;101174.81;;;3.09;95.80
70314;BME280;57725;47.526;18.986;2023-02-16T00:26:48;101180.84;;;3.10;95.83
70314;BME280;57725;47.526;18.986;2023-02-16T00:29:24;101174.84;;;3.11;96.03
70314;BME280;57725;47.526;18.986;2023-02-16T00:31:50;101171.38;;;3.12;96.04
70314;BME280;57725;47.526;18.986;2023-02-16T00:36:43;101174.81;;;3.09;95.70
70314;BME280;57725;47.526;18.986;2023-02-16T00:39:09;101163.63;;;3.09;95.95
70314;BME280;57725;47.526;18.986;2023-02-16T00:41:37;101167.94;;;3.10;95.69
70314;BME280;57725;47.526;18.986;2023-02-16T00:44:24;101174.81;;;3.09;96.31
70314;BME280;57725;47.526;18.986;2023-02-16T00:46:53;101175.66;;;3.08;95.32
70314;BME280;57725;47.526;18.986;2023-02-16T00:49:20;101171.34;;;3.07;95.75
70314;BME280;57725;47.526;18.986;2023-02-16T00:51:49;101161.88;;;3.06;95.76
70314;BME280;57725;47.526;18.986;2023-02-16T00:54:14;101160.16;;;3.07;95.86
70314;BME280;57725;47.526;18.986;2023-02-16T00:56:41;101156.69;;;3.06;95.86
70314;BME280;57725;47.526;18.986;2023-02-16T00:59:13;101155.84;;;3.06;95.81
70314;BME280;57725;47.526;18.986;2023-02-16T01:01:43;101149.78;;;3.05;96.09
70314;BME280;57725;47.526;18.986;2023-02-16T01:04:12;101152.38;;;3.05;96.12
70314;BME280;57725;47.526;18.986;2023-02-16T01:06:43;101148.94;;;3.05;96.04
70314;BME280;57725;47.526;18.986;2023-02-16T01:09:27;101148.03;;;3.03;95.83
70314;BME280;57725;47.526;18.986;2023-02-16T01:12:15;101149.78;;;3.04;95.59
70314;BME280;57725;47.526;18.986;2023-02-16T01:14:42;101146.31;;;3.03;95.74
70314;BME280;57725;47.526;18.986;2023-02-16T01:17:09;101145.44;;;3.01;95.78
70314;BME280;57725;47.526;18.986;2023-02-16T01:19:35;101154.06;;;3.03;96.05
70314;BME280;57725;47.526;18.986;2023-02-16T01:22:00;101146.31;;;3.02;95.62
70314;BME280;57725;47.526;18.986;2023-02-16T01:24:28;101142.88;;;3.01;95.63
70314;BME280;57725;47.526;18.986;2023-02-16T01:26:53;101146.28;;;3.00;95.60
70314;BME280;57725;47.526;18.986;2023-02-16T01:29:22;101143.72;;;3.00;96.13
70314;BME280;57725;47.526;18.986;2023-02-16T01:31:47;101135.97;;;3.00;96.00
70314;BME280;57725;47.526;18.986;2023-02-16T01:34:13;101133.38;;;2.97;95.67
70314;BME280;57725;47.526;18.986;2023-02-16T01:36:44;101138.56;;;2.99;95.87
70314;BME280;57725;47.526;18.986;2023-02-16T01:39:13;101130.81;;;2.99;96.05
70314;BME280;57725;47.526;18.986;2023-02-16T01:46:54;101121.31;;;2.96;95.85
70314;BME280;57725;47.526;18.986;2023-02-16T01:49:21;101125.63;;;2.96;95.95
70314;BME280;57725;47.526;18.986;2023-02-16T01:54:30;101122.16;;;2.95;95.84
70314;BME280;57725;47.526;18.986;2023-02-16T02:02:18;101109.22;;;2.94;95.59
70314;BME280;57725;47.526;18.986;2023-02-16T02:04:50;101103.19;;;2.93;95.73
70314;BME280;57725;47.526;18.986;2023-02-16T02:07:45;101100.59;;;2.90;95.90
70314;BME280;57725;47.526;18.986;2023-02-16T02:10:16;101100.59;;;2.91;95.59
70314;BME280;57725;47.526;18.986;2023-02-16T02:12:51;101096.28;;;2.90;95.73
70314;BME280;57725;47.526;18.986;2023-02-16T02:15:23;101083.38;;;2.90;95.75
70314;BME280;57725;47.526;18.986;2023-02-16T02:17:51;101085.09;;;2.90;95.63
70314;BME280;57725;47.526;18.986;2023-02-16T02:20:51;101084.22;;;2.89;95.83
70314;BME280;57725;47.526;18.986;2023-02-16T02:29:53;101072.16;;;2.88;95.68
70314;BME280;57725;47.526;18.986;2023-02-16T02:45:43;101092.81;;;2.85;95.70
70314;BME280;57725;47.526;18.986;2023-02-16T02:48:09;101087.66;;;2.85;95.56
70314;BME280;57725;47.526;18.986;2023-02-16T02:50:42;101087.66;;;2.85;95.50
70314;BME280;57725;47.526;18.986;2023-02-16T02:53:35;101080.75;;;2.84;95.64
70314;BME280;57725;47.526;18.986;2023-02-16T02:56:04;101079.03;;;2.85;95.69
70314;BME280;57725;47.526;18.986;2023-02-16T02:58:52;101083.34;;;2.84;95.99
70314;BME280;57725;47.526;18.986;2023-02-16T03:01:45;101078.16;;;2.84;95.72
70314;BME280;57725;47.526;18.986;2023-02-16T03:04:14;101072.09;;;2.81;95.68
70314;BME280;57725;47.526;18.986;2023-02-16T03:06:46;101076.41;;;2.80;95.51
70314;BME280;57725;47.526;18.986;2023-02-16T03:09:15;101084.16;;;2.82;95.74
70314;BME280;57725;47.526;18.986;2023-02-16T03:11:44;101075.56;;;2.81;95.88
70314;BME280;57725;47.526;18.986;2023-02-16T03:17:07;101073.81;;;2.80;95.61
70314;BME280;57725;47.526;18.986;2023-02-16T03:19:54;101071.25;;;2.80;95.64
70314;BME280;57725;47.526;18.986;2023-02-16T03:22:39;101067.78;;;2.78;95.55
70314;BME280;57725;47.526;18.986;2023-02-16T03:25:25;101070.38;;;2.80;95.41
70314;BME280;57725;47.526;18.986;2023-02-16T03:28:12;101071.22;;;2.79;95.26
70314;BME280;57725;47.526;18.986;2023-02-16T03:30:59;101066.03;;;2.77;95.47
70314;BME280;57725;47.526;18.986;2023-02-16T03:33:26;101064.34;;;2.76;95.35
70314;BME280;57725;47.526;18.986;2023-02-16T03:36:00;101071.22;;;2.77;95.55
70314;BME280;57725;47.526;18.986;2023-02-16T03:38:28;101061.75;;;2.75;95.43
70314;BME280;57725;47.526;18.986;2023-02-16T03:40:53;101065.22;;;2.77;95.72
70314;BME280;57725;47.526;18.986;2023-02-16T03:43:27;101065.22;;;2.77;95.40
70314;BME280;57725;47.526;18.986;2023-02-16T03:45:53;101061.72;;;2.73;95.58
70314;BME280;57725;47.526;18.986;2023-02-16T03:48:19;101064.31;;;2.75;95.55
70314;BME280;57725;47.526;18.986;2023-02-16T03:50:49;101068.63;;;2.76;95.50
70314;BME280;57725;47.526;18.986;2023-02-16T03:53:14;101063.47;;;2.77;95.74
70314;BME280;57725;47.526;18.986;2023-02-16T03:55:49;101063.47;;;2.76;95.47
70314;BME280;57725;47.526;18.986;2023-02-16T03:58:18;101060.88;;;2.74;95.43
70314;BME280;57725;47.526;18.986;2023-02-16T04:00:44;101061.75;;;2.76;95.44
70314;BME280;57725;47.526;18.986;2023-02-16T04:03:16;101061.75;;;2.75;95.51
70314;BME280;57725;47.526;18.986;2023-02-16T04:05:41;101060.91;;;2.76;95.67
70314;BME280;57725;47.526;18.986;2023-02-16T04:08:08;101065.19;;;2.74;95.71
70314;BME280;57725;47.526;18.986;2023-02-16T04:10:35;101055.72;;;2.74;95.61
70314;BME280;57725;47.526;18.986;2023-02-16T04:13:00;101060.00;;;2.74;95.33
70314;BME280;57725;47.526;18.986;2023-02-16T04:15:29;101061.72;;;2.73;95.25
70314;BME280;57725;47.526;18.986;2023-02-16T04:17:55;101059.16;;;2.73;95.52
70314;BME280;57725;47.526;18.986;2023-02-16T04:20:25;101054.84;;;2.74;95.39
70314;BME280;57725;47.526;18.986;2023-02-16T04:22:51;101062.56;;;2.72;95.47
70314;BME280;57725;47.526;18.986;2023-02-16T04:25:17;101057.41;;;2.72;95.54
70314;BME280;57725;47.526;18.986;2023-02-16T04:27:43;101062.56;;;2.72;94.97
70314;BME280;57725;47.526;18.986;2023-02-16T04:30:16;101053.97;;;2.73;95.41
70314;BME280;57725;47.526;18.986;2023-02-16T04:32:42;101066.03;;;2.73;95.08
70314;BME280;57725;47.526;18.986;2023-02-16T04:35:08;101065.16;;;2.72;95.67
70314;BME280;57725;47.526;18.986;2023-02-16T04:37:34;101061.72;;;2.72;95.15
70314;BME280;57725;47.526;18.986;2023-02-16T04:40:04;101069.47;;;2.72;95.47
70314;BME280;57725;47.526;18.986;2023-02-16T04:42:32;101064.28;;;2.70;95.30
70314;BME280;57725;47.526;18.986;2023-02-16T04:45:00;101065.16;;;2.71;95.26
70314;BME280;57725;47.526;18.986;2023-02-16T04:47:26;101065.13;;;2.69;95.44
70314;BME280;57725;47.526;18.986;2023-02-16T04:49:53;101065.16;;;2.71;95.28
70314;BME280;57725;47.526;18.986;2023-02-16T04:52:21;101066.00;;;2.70;95.34
70314;BME280;57725;47.526;18.986;2023-02-16T04:54:47;101066.84;;;2.70;95.35
70314;BME280;57725;47.526;18.986;2023-02-16T04:57:12;101069.44;;;2.69;95.02
70314;BME280;57725;47.526;18.986;2023-02-16T04:59:37;101062.50;;;2.63;95.31
70314;BME280;57725;47.526;18.986;2023-02-16T05:02:03;101058.22;;;2.67;95.20
70314;BME280;57725;47.526;18.986;2023-02-16T05:04:29;101057.38;;;2.68;95.26
70314;BME280;57725;47.526;18.986;2023-02-16T05:06:54;101056.50;;;2.67;95.38
70314;BME280;57725;47.526;18.986;2023-02-16T05:09:20;101057.38;;;2.68;95.10
70314;BME280;57725;47.526;18.986;2023-02-16T05:11:47;101059.94;;;2.66;95.19
70314;BME280;57725;47.526;18.986;2023-02-16T05:14:34;101059.94;;;2.66;95.24
70314;BME280;57725;47.526;18.986;2023-02-16T05:17:06;101065.09;;;2.66;95.14
70314;BME280;57725;47.526;18.986;2023-02-16T05:19:32;101052.19;;;2.63;95.29
70314;BME280;57725;47.526;18.986;2023-02-16T05:22:01;101060.81;;;2.65;95.28
70314;BME280;57725;47.526;18.986;2023-02-16T05:24:26;101058.22;;;2.65;95.14
70314;BME280;57725;47.526;18.986;2023-02-16T05:26:52;101058.22;;;2.65;95.20
70314;BME280;57725;47.526;18.986;2023-02-16T05:29:19;101048.72;;;2.63;95.44
70314;BME280;57725;47.526;18.986;2023-02-16T05:31:47;101042.69;;;2.62;95.18
70314;BME280;57725;47.526;18.986;2023-02-16T05:34:13;101044.41;;;2.62;95.09
70314;BME280;57725;47.526;18.986;2023-02-16T05:36:38;101049.63;;;2.65;95.30
70314;BME280;57725;47.526;18.986;2023-02-16T05:39:04;101033.16;;;2.55;95.25
70314;BME280;57725;47.526;18.986;2023-02-16T05:41:29;101047.03;;;2.63;95.12
70314;BME280;57725;47.526;18.986;2023-02-16T05:44:00;101057.38;;;2.65;94.83
70314;BME280;57725;47.526;18.986;2023-02-16T05:46:27;101056.50;;;2.64;95.14
70314;BME280;57725;47.526;18.986;2023-02-16T05:48:56;101053.03;;;2.64;95.09
70314;BME280;57725;47.526;18.986;2023-02-16T05:51:23;101051.31;;;2.63;95.24
70314;BME280;57725;47.526;18.986;2023-02-16T05:53:49;101053.91;;;2.63;95.21
70314;BME280;57725;47.526;18.986;2023-02-16T05:56:16;101043.56;;;2.63;95.52
70314;BME280;57725;47.526;18.986;2023-02-16T05:58:44;101044.41;;;2.62;95.22
70314;BME280;57725;47.526;18.986;2023-02-16T06:01:10;101049.59;;;2.62;95.19
70314;BME280;57725;47.526;18.986;2023-02-16T06:03:37;101047.88;;;2.62;94.91
70314;BME280;57725;47.526;18.986;2023-02-16T06:06:04;101043.53;;;2.58;94.87
70314;BME280;57725;47.526;18.986;2023-02-16T06:08:30;101047.88;;;2.62;94.86
70314;BME280;57725;47.526;18.986;2023-02-16T06:10:56;101025.41;;;2.52;95.23
70314;BME280;57725;47.526;18.986;2023-02-16T06:13:22;101047.84;;;2.61;95.00
70314;BME280;57725;47.526;18.986;2023-02-16T06:15:51;101047.88;;;2.62;94.98
70314;BME280;57725;47.526;18.986;2023-02-16T06:18:17;101046.13;;;2.61;95.13
70314;BME280;57725;47.526;18.986;2023-02-16T06:20:45;101044.38;;;2.59;94.73
70314;BME280;57725;47.526;18.986;2023-02-16T06:23:13;101042.66;;;2.59;95.16
70314;BME280;57725;47.526;18.986;2023-02-16T06:25:48;101046.13;;;2.61;94.95
70314;BME280;57725;47.526;18.986;2023-02-16T06:28:13;101046.97;;;2.60;95.12
70314;BME280;57725;47.526;18.986;2023-02-16T06:30:39;101041.81;;;2.59;94.97
70314;BME280;57725;47.526;18.986;2023-02-16T06:33:06;101045.25;;;2.59;95.17
70314;BME280;57725;47.526;18.986;2023-02-16T06:35:32;101042.66;;;2.59;94.88
70314;BME280;57725;47.526;18.986;2023-02-16T06:37:59;101034.03;;;2.57;95.09
70314;BME280;57725;47.526;18.986;2023-02-16T06:40:25;101040.06;;;2.58;94.81
70314;BME280;57725;47.526;18.986;2023-02-16T06:42:50;101039.22;;;2.59;94.99
70314;BME280;57725;47.526;18.986;2023-02-16T06:45:16;101044.38;;;2.59;94.90
70314;BME280;57725;47.526;18.986;2023-02-16T06:47:41;101041.81;;;2.59;94.89
70314;BME280;57725;47.526;18.986;2023-02-16T06:50:09;101042.66;;;2.59;94.87
70314;BME280;57725;47.526;18.986;2023-02-16T06:52:36;101038.34;;;2.58;94.96
70314;BME280;57725;47.526;18.986;2023-02-16T06:55:04;101039.19;;;2.57;95.32
70314;BME280;57725;47.526;18.986;2023-02-16T06:57:33;101044.38;;;2.57;95.09
70314;BME280;57725;47.526;18.986;2023-02-16T07:00:03;101043.53;;;2.58;94.96
70314;BME280;57725;47.526;18.986;2023-02-16T07:02:29;101039.19;;;2.55;94.88
70314;BME280;57725;47.526;18.986;2023-02-16T07:04:55;101038.34;;;2.58;94.86
70314;BME280;57725;47.526;18.986;2023-02-16T07:07:25;101038.34;;;2.58;94.95
70314;BME280;57725;47.526;18.986;2023-02-16T07:09:50;101041.81;;;2.59;95.02
70314;BME280;57725;47.526;18.986;2023-02-16T07:12:18;101031.44;;;2.55;94.91
70314;BME280;57725;47.526;18.986;2023-02-16T07:14:44;101037.50;;;2.58;95.10
70314;BME280;57725;47.526;18.986;2023-02-16T07:17:12;101038.31;;;2.55;94.70
70314;BME280;57725;47.526;18.986;2023-02-16T07:19:37;101040.94;;;2.58;95.05
70314;BME280;57725;47.526;18.986;2023-02-16T07:22:05;101040.06;;;2.58;95.11
70314;BME280;57725;47.526;18.986;2023-02-16T07:24:33;101040.91;;;2.57;94.98
70314;BME280;57725;47.526;18.986;2023-02-16T07:26:58;101044.38;;;2.57;94.75
70314;BME280;57725;47.526;18.986;2023-02-16T07:29:23;101046.94;;;2.57;94.80
70314;BME280;57725;47.526;18.986;2023-02-16T07:31:49;101052.13;;;2.59;94.77
70314;BME280;57725;47.526;18.986;2023-02-16T07:34:15;101042.66;;;2.58;94.88
70314;BME280;57725;47.526;18.986;2023-02-16T07:36:43;101040.06;;;2.58;94.92
70314;BME280;57725;47.526;18.986;2023-02-16T07:39:10;101034.03;;;2.57;95.09
70314;BME280;57725;47.526;18.986;2023-02-16T07:41:35;101031.47;;;2.59;94.91
70314;BME280;57725;47.526;18.986;2023-02-16T07:44:07;101023.72;;;2.57;95.20
70314;BME280;57725;47.526;18.986;2023-02-16T07:46:33;101031.47;;;2.57;95.43
70314;BME280;57725;47.526;18.986;2023-02-16T07:48:58;101033.19;;;2.57;95.10
70314;BME280;57725;47.526;18.986;2023-02-16T07:51:26;101025.44;;;2.57;95.12
70314;BME280;57725;47.526;18.986;2023-02-16T07:53:52;101032.31;;;2.58;95.12
70314;BME280;57725;47.526;18.986;2023-02-16T07:56:26;101026.28;;;2.55;95.35
70314;BME280;57725;47.526;18.986;2023-02-16T07:58:55;101027.19;;;2.59;95.26
70314;BME280;57725;47.526;18.986;2023-02-16T08:01:22;101028.91;;;2.59;95.35
70314;BME280;57725;47.526;18.986;2023-02-16T08:03:47;101028.03;;;2.58;95.30
70314;BME280;57725;47.526;18.986;2023-02-16T08:06:13;101028.91;;;2.59;95.21
70314;BME280;57725;47.526;18.986;2023-02-16T08:08:39;101029.75;;;2.59;95.53
70314;BME280;57725;47.526;18.986;2023-02-16T08:11:14;101034.91;;;2.58;95.31
70314;BME280;57725;47.526;18.986;2023-02-16T08:13:40;101032.34;;;2.59;95.67
70314;BME280;57725;47.526;18.986;2023-02-16T08:16:10;101033.22;;;2.60;95.22
70314;BME280;57725;47.526;18.986;2023-02-16T08:18:37;101037.50;;;2.59;95.17
70314;BME280;57725;47.526;18.986;2023-02-16T08:21:07;101039.25;;;2.60;95.08
70314;BME280;57725;47.526;18.986;2023-02-16T08:23:40;101034.88;;;2.56;95.33
70314;BME280;57725;47.526;18.986;2023-02-16T08:26:10;101039.25;;;2.60;95.47
70314;BME280;57725;47.526;18.986;2023-02-16T08:28:36;101039.25;;;2.60;95.33
70314;BME280;57725;47.526;18.986;2023-02-16T08:31:05;101040.09;;;2.59;94.95
70314;BME280;57725;47.526;18.986;2023-02-16T08:33:36;101038.38;;;2.60;95.24
70314;BME280;57725;47.526;18.986;2023-02-16T08:36:06;101038.38;;;2.60;95.26
70314;BME280;57725;47.526;18.986;2023-02-16T08:38:36;101036.66;;;2.60;95.18
70314;BME280;57725;47.526;18.986;2023-02-16T08:41:01;101031.47;;;2.59;95.46
70314;BME280;57725;47.526;18.986;2023-02-16T08:43:31;101038.38;;;2.60;95.00
70314;BME280;57725;47.526;18.986;2023-02-16T08:45:59;101036.66;;;2.60;95.02
70314;BME280;57725;47.526;18.986;2023-02-16T08:48:24;101033.22;;;2.60;95.19
70314;BME280;57725;47.526;18.986;2023-02-16T08:50:53;101031.50;;;2.60;94.91
70314;BME280;57725;47.526;18.986;2023-02-16T08:53:21;101034.06;;;2.60;95.48
70314;BME280;57725;47.526;18.986;2023-02-16T08:55:58;101037.53;;;2.61;95.27
70314;BME280;57725;47.526;18.986;2023-02-16T08:58:40;101041.81;;;2.60;95.54
70314;BME280;57725;47.526;18.986;2023-02-16T09:01:06;101036.66;;;2.60;95.40
70314;BME280;57725;47.526;18.986;2023-02-16T09:03:37;101031.47;;;2.59;95.23
70314;BME280;57725;47.526;18.986;2023-02-16T09:06:05;101034.94;;;2.61;94.98
70314;BME280;57725;47.526;18.986;2023-02-16T09:08:31;101031.50;;;2.60;95.16
70314;BME280;57725;47.526;18.986;2023-02-16T09:11:05;101025.44;;;2.58;95.21
70314;BME280;57725;47.526;18.986;2023-02-16T09:13:34;101028.91;;;2.60;95.26
70314;BME280;57725;47.526;18.986;2023-02-16T09:16:06;101034.09;;;2.62;95.20
70314;BME280;57725;47.526;18.986;2023-02-16T09:18:36;101040.13;;;2.62;94.97
70314;BME280;57725;47.526;18.986;2023-02-16T09:21:04;101024.63;;;2.61;95.33
70314;BME280;57725;47.526;18.986;2023-02-16T09:23:34;101022.88;;;2.60;95.18
70314;BME280;57725;47.526;18.986;2023-02-16T09:26:00;101026.34;;;2.62;95.34
70314;BME280;57725;47.526;18.986;2023-02-16T09:28:38;101029.78;;;2.62;95.17
70314;BME280;57725;47.526;18.986;2023-02-16T09:31:24;101028.94;;;2.62;95.31
70314;BME280;57725;47.526;18.986;2023-02-16T09:34:06;101022.91;;;2.61;95.21
70314;BME280;57725;47.526;18.986;2023-02-16T09:36:33;101031.53;;;2.63;95.31
70314;BME280;57725;47.526;18.986;2023-02-16T09:38:59;101025.50;;;2.63;95.17
70314;BME280;57725;47.526;18.986;2023-02-16T09:47:18;101032.38;;;2.64;95.41
70314;BME280;57725;47.526;18.986;2023-02-16T09:49:45;101028.09;;;2.64;95.07
70314;BME280;57725;47.526;18.986;2023-02-16T09:54:59;101022.06;;;2.64;95.38
70314;BME280;57725;47.526;18.986;2023-02-16T10:08:39;101016.03;;;2.66;95.32
70314;BME280;57725;47.526;18.986;2023-02-16T10:11:13;101016.03;;;2.66;95.42
70314;BME280;57725;47.526;18.986;2023-02-16T10:14:15;101013.44;;;2.66;95.26
70314;BME280;57725;47.526;18.986;2023-02-16T10:17:05;101006.56;;;2.67;95.54
70314;BME280;57725;47.526;18.986;2023-02-16T10:19:42;100992.78;;;2.63;95.56
70314;BME280;57725;47.526;18.986;2023-02-16T10:22:19;101004.00;;;2.68;95.44
70314;BME280;57725;47.526;18.986;2023-02-16T10:25:00;101004.00;;;2.67;95.47
70314;BME280;57725;47.526;18.986;2023-02-16T10:27:32;101002.28;;;2.69;95.94
70314;BME280;57725;47.526;18.986;2023-02-16T10:30:00;101004.00;;;2.68;95.43
70314;BME280;57725;47.526;18.986;2023-02-16T10:32:27;100998.84;;;2.68;95.48
70314;BME280;57725;47.526;18.986;2023-02-16T10:38:26;100986.81;;;2.70;95.57
70314;BME280;57725;47.526;18.986;2023-02-16T10:43:18;100984.22;;;2.70;95.60
70314;BME280;57725;47.526;18.986;2023-02-16T10:45:54;100976.47;;;2.70;95.67
70314;BME280;57725;47.526;18.986;2023-02-16T10:48:26;100979.06;;;2.72;95.73
70314;BME280;57725;47.526;18.986;2023-02-16T10:51:04;100963.59;;;2.72;95.71
70314;BME280;57725;47.526;18.986;2023-02-16T10:55:57;100975.66;;;2.73;95.71
70314;BME280;57725;47.526;18.986;2023-02-16T10:58:38;100965.31;;;2.73;96.34
70314;BME280;57725;47.526;18.986;2023-02-16T11:01:47;100968.75;;;2.73;95.95
70314;BME280;57725;47.526;18.986;2023-02-16T11:07:19;100961.88;;;2.74;95.74
70314;BME280;57725;47.526;18.986;2023-02-16T11:09:47;100965.34;;;2.76;95.88
70314;BME280;57725;47.526;18.986;2023-02-16T11:15:00;100955.88;;;2.75;95.94
70314;BME280;57725;47.526;18.986;2023-02-16T11:17:46;100955.00;;;2.76;95.81
70314;BME280;57725;47.526;18.986;2023-02-16T11:28:46;100932.63;;;2.78;95.87
70314;BME280;57725;47.526;18.986;2023-02-16T11:31:27;100940.38;;;2.79;95.72
70314;BME280;57725;47.526;18.986;2023-02-16T11:41:29;100933.50;;;2.81;95.84
70314;BME280;57725;47.526;18.986;2023-02-16T11:44:00;100924.91;;;2.81;95.92
70314;BME280;57725;47.526;18.986;2023-02-16T11:46:37;100920.59;;;2.81;95.95
70314;BME280;57725;47.526;18.986;2023-02-16T11:51:54;100924.91;;;2.82;95.96
70314;BME280;57725;47.526;18.986;2023-02-16T11:54:20;100915.44;;;2.83;95.97
70314;BME280;57725;47.526;18.986;2023-02-16T11:57:01;100915.44;;;2.83;95.96
70314;BME280;57725;47.526;18.986;2023-02-16T11:59:36;100898.22;;;2.83;95.96
70314;BME280;57725;47.526;18.986;2023-02-16T12:10:56;100878.44;;;2.85;95.99
70314;BME280;57725;47.526;18.986;2023-02-16T12:13:44;100866.41;;;2.86;96.14
70314;BME280;57725;47.526;18.986;2023-02-16T12:24:43;100860.34;;;2.88;95.61
70314;BME280;57725;47.526;18.986;2023-02-16T12:27:32;100850.88;;;2.89;96.05
70314;BME280;57725;47.526;18.986;2023-02-16T12:41:03;100840.56;;;2.92;96.03
70314;BME280;57725;47.526;18.986;2023-02-16T12:43:38;100841.44;;;2.94;96.27
70314;BME280;57725;47.526;18.986;2023-02-16T12:46:20;100844.03;;;2.94;96.22
70314;BME280;57725;47.526;18.986;2023-02-16T12:48:51;100841.44;;;2.94;96.22
70314;BME280;57725;47.526;18.986;2023-02-16T12:51:21;100837.16;;;2.95;96.02
70314;BME280;57725;47.526;18.986;2023-02-16T12:56:47;100824.25;;;2.96;96.37
70314;BME280;57725;47.526;18.986;2023-02-16T12:59:34;100823.38;;;2.97;96.41
70314;BME280;57725;47.526;18.986;2023-02-16T13:02:11;100827.69;;;2.98;96.37
70314;BME280;57725;47.526;18.986;2023-02-16T13:05:06;100819.97;;;3.00;96.14
70314;BME280;57725;47.526;18.986;2023-02-16T13:07:48;100815.63;;;3.00;96.46
70314;BME280;57725;47.526;18.986;2023-02-16T13:10:42;100804.47;;;3.00;96.66
70314;BME280;57725;47.526;18.986;2023-02-16T13:13:17;100801.84;;;3.01;96.31
70314;BME280;57725;47.526;18.986;2023-02-16T13:18:27;100805.31;;;3.05;96.36
70314;BME280;57725;47.526;18.986;2023-02-16T13:21:02;100793.25;;;3.02;96.38
70314;BME280;57725;47.526;18.986;2023-02-16T13:23:36;100786.38;;;3.04;96.91
70314;BME280;57725;47.526;18.986;2023-02-16T13:26:31;100790.69;;;3.05;96.37
70314;BME280;57725;47.526;18.986;2023-02-16T13:29:04;100795.00;;;3.06;95.97
70314;BME280;57725;47.526;18.986;2023-02-16T13:39:52;100783.81;;;3.10;96.29
70314;BME280;57725;47.526;18.986;2023-02-16T13:44:57;100785.50;;;3.13;96.32
70314;BME280;57725;47.526;18.986;2023-02-16T13:47:32;100781.22;;;3.13;96.31
70314;BME280;57725;47.526;18.986;2023-02-16T13:50:00;100777.78;;;3.10;95.99
70314;BME280;57725;47.526;18.986;2023-02-16T13:52:40;100791.56;;;3.16;96.32
70314;BME280;57725;47.526;18.986;2023-02-16T14:03:08;100772.63;;;3.17;96.05
70314;BME280;57725;47.526;18.986;2023-02-16T14:05:37;100768.31;;;3.19;95.93
70314;BME280;57725;47.526;18.986;2023-02-16T14:11:12;100764.88;;;3.19;95.90
70314;BME280;57725;47.526;18.986;2023-02-16T14:18:55;100779.50;;;3.24;96.29
70314;BME280;57725;47.526;18.986;2023-02-16T14:21:38;100770.03;;;3.25;95.99
70314;BME280;57725;47.526;18.986;2023-02-16T14:24:20;100769.16;;;3.26;96.28
70314;BME280;57725;47.526;18.986;2023-02-16T14:26:52;100766.59;;;3.23;96.32
70314;BME280;57725;47.526;18.986;2023-02-16T14:29:52;100776.94;;;3.27;96.12
70314;BME280;57725;47.526;18.986;2023-02-16T14:32:28;100770.03;;;3.25;96.11
70314;BME280;57725;47.526;18.986;2023-02-16T14:34:57;100772.63;;;3.28;95.98
70314;BME280;57725;47.526;18.986;2023-02-16T14:37:33;100770.91;;;3.28;96.08
70314;BME280;57725;47.526;18.986;2023-02-16T14:40:17;100769.19;;;3.31;96.07
70314;BME280;57725;47.526;18.986;2023-02-16T14:42:55;100758.84;;;3.32;95.82
70314;BME280;57725;47.526;18.986;2023-02-16T14:54:04;100760.53;;;3.98;95.31
70314;BME280;57725;47.526;18.986;2023-02-16T14:56:37;100769.16;;;3.82;95.96
70314;BME280;57725;47.526;18.986;2023-02-16T15:01:39;100757.97;;;3.59;96.88
70314;BME280;57725;47.526;18.986;2023-02-16T15:04:09;100758.84;;;3.52;97.58
70314;BME280;57725;47.526;18.986;2023-02-16T15:06:44;100761.44;;;3.47;97.80
70314;BME280;57725;47.526;18.986;2023-02-16T15:09:24;100746.78;;;3.36;98.22
70314;BME280;57725;47.526;18.986;2023-02-16T15:11:57;100758.84;;;3.43;98.26
70314;BME280;57725;47.526;18.986;2023-02-16T15:19:50;100761.44;;;3.41;98.26
70314;BME280;57725;47.526;18.986;2023-02-16T15:22:22;100758.00;;;3.42;98.43
70314;BME280;57725;47.526;18.986;2023-02-16T15:25:01;100745.94;;;3.40;98.26
70314;BME280;57725;47.526;18.986;2023-02-16T15:27:27;100758.00;;;3.42;98.63
70314;BME280;57725;47.526;18.986;2023-02-16T15:30:22;100746.78;;;3.40;97.99
70314;BME280;57725;47.526;18.986;2023-02-16T15:33:00;100753.69;;;3.43;98.37
70314;BME280;57725;47.526;18.986;2023-02-16T15:35:33;100745.94;;;3.40;98.13
70314;BME280;57725;47.526;18.986;2023-02-16T15:40:51;100762.31;;;3.45;97.73
70314;BME280;57725;47.526;18.986;2023-02-16T15:46:00;100755.41;;;3.44;98.42
70314;BME280;57725;47.526;18.986;2023-02-16T15:51:14;100757.97;;;3.47;97.87
70314;BME280;57725;47.526;18.986;2023-02-16T15:53:54;100762.28;;;3.46;97.60
70314;BME280;57725;47.526;18.986;2023-02-16T15:59:04;100756.25;;;3.47;97.45
70314;BME280;57725;47.526;18.986;2023-02-16T16:01:42;100758.84;;;3.47;97.32
70314;BME280;57725;47.526;18.986;2023-02-16T16:06:46;100746.78;;;3.46;97.81
70314;BME280;57725;47.526;18.986;2023-02-16T16:09:21;100745.06;;;3.48;97.39
70314;BME280;57725;47.526;18.986;2023-02-16T16:11:47;100752.81;;;3.50;96.90
70314;BME280;57725;47.526;18.986;2023-02-16T16:14:18;100753.69;;;3.49;97.17
70314;BME280;57725;47.526;18.986;2023-02-16T16:16:47;100753.69;;;3.52;96.84